Latest Weather Observations for Wagga Wagga

IDN60801

Issued at 7:32 pm EDT Thursday 19 January 2017 (issued every 30 minutes, with the page automatically refreshed every 10 minutes)

About weather observations | Map of weather stations | Latest weather observations for NSW | Other Formats
Station Details ID: 072150 Name: WAGGA WAGGA AMO Lat: -35.16 Lon: 147.46 Height: 212.0 m
Data from the previous 72 hours. | See also: Recent months at Wagga Wagga
Date/Time
EDT
Temp
°C
App
Temp
°C
Dew
Point
°C
Rel
Hum
%
Delta-T
°C
Wind Press
QNH
hPa
Press
MSL
hPa
Rain since
9am
mm
Dir  Spd
km/h
Gust
km/h
Spd
kts
Gust
kts
19/07:30pm 31.4 27.9 10.1 26 12.3 NE 19 24 10 13 1003.7 1002.7 0.0
19/07:00pm 32.4 29.5 9.6 24 13.1 NE 15 22 8 12 1003.8 1002.8 0.0
19/06:30pm 32.8 29.4 9.2 23 13.5 ENE 17 24 9 13 1004.0 1003.0 0.0
19/06:00pm 33.1 30.8 8.9 22 13.8 NNE 11 17 6 9 1004.3 1003.2 0.0
19/05:30pm 33.9 31.6 10.6 24 13.6 ENE 13 24 7 13 1004.8 1003.7 0.0
19/05:00pm 33.4 30.7 8.9 22 14.0 E 13 19 7 10 1005.3 1004.2 0.0
19/04:30pm 33.5 30.7 8.5 21 14.2 ENE 13 26 7 14 1005.7 1004.6 0.0
19/04:00pm 33.5 31.4 8.2 21 14.3 NE 9 22 5 12 1006.2 1005.1 0.0
19/03:30pm 32.8 30.3 8.1 21 13.8 N 11 17 6 9 1006.8 1005.7 0.0
19/03:00pm 32.5 30.3 7.8 21 13.8 NW 9 15 5 8 1007.2 1006.2 0.0
19/02:30pm 31.6 28.9 7.3 22 13.4 NNE 11 24 6 13 1007.8 1006.8 0.0
19/02:00pm 31.5 28.0 5.6 19 13.9 N 13 26 7 14 1008.2 1007.2 0.0
19/01:30pm 30.9 27.5 10.5 28 11.8 NE 19 35 10 19 1008.6 1007.6 0.0
19/01:00pm 29.9 27.3 10.7 30 11.1 NE 15 22 8 12 1009.3 1008.2 0.0
19/12:30pm 29.7 26.0 10.1 29 11.2 ENE 20 33 11 18 1009.7 1008.6 0.0
19/12:00pm 28.7 26.6 11.0 33 10.2 NE 13 24 7 13 1010.1 1009.0 0.0
19/11:30am 28.3 25.1 11.9 36 9.6 ENE 20 30 11 16 1010.3 1009.2 0.0
19/11:00am 26.4 23.6 12.6 42 8.1 ENE 19 28 10 15 1010.6 1009.5 0.0
19/10:30am 25.9 22.1 12.3 42 7.9 ENE 24 35 13 19 1010.9 1009.8 0.0
19/10:00am 25.0 20.9 12.6 46 7.2 ENE 26 33 14 18 1011.0 1009.9 0.0
19/09:30am 23.5 20.1 12.4 49 6.4 ENE 22 32 12 17 1011.3 1010.3 0.0
19/09:00am 22.3 18.3 11.9 51 5.9 ENE 24 35 13 19 1011.6 1010.6 0.0
19/08:30am 21.5 16.7 11.8 54 5.5 ENE 28 41 15 22 1011.5 1010.5 0.0
19/08:00am 20.4 16.4 11.7 57 4.9 E 24 35 13 19 1011.4 1010.4 0.0
19/07:30am 19.7 16.0 11.6 59 4.5 E 22 30 12 16 1011.5 1010.5 0.0
19/07:00am 19.2 16.2 11.9 62 4.1 E 19 26 10 14 1011.2 1010.2 0.0
19/06:30am 18.6 16.1 12.4 67 3.5 E 17 26 9 14 1011.1 1010.0 0.0
19/06:00am 18.5 16.1 12.7 69 3.3 E 17 24 9 13 1010.9 1009.8 0.0
19/05:30am 18.4 16.1 13.1 71 3.0 E 17 26 9 14 1010.7 1009.6 0.0
19/05:00am 18.3 16.9 13.4 73 2.8 ENE 13 19 7 10 1010.4 1009.3 0.0
19/04:30am 18.3 16.7 12.8 70 3.1 E 13 17 7 9 1010.2 1009.1 0.0
19/04:00am 18.0 16.5 9.1 56 4.7 ENE 7 9 4 5 1010.2 1009.1 0.0
19/03:30am 17.7 15.3 8.7 55 4.7 E 11 15 6 8 1010.4 1009.3 0.0
19/03:00am 17.7 16.1 8.9 56 4.6 E 7 9 4 5 1010.6 1009.5 0.0
19/02:45am 17.4 15.8 8.6 56 4.6 ESE 7 9 4 5 1010.6 1009.5 0.0
19/02:30am 18.3 17.5 8.3 52 5.2 ENE 2 6 1 3 1010.5 1009.4 0.0
19/02:26am 19.0 17.9 8.3 50 5.6 ENE 4 9 2 5 1010.7 1009.6 0.0
19/02:00am 19.8 18.1 8.4 47 6.0 NE 7 9 4 5 1011.0 1009.9 0.0
19/01:30am 20.2 19.9 8.7 47 6.1 CALM 0 9 0 5 1010.9 1009.8 0.0
19/01:00am 20.7 18.6 8.2 44 6.6 WSW 9 11 5 6 1010.7 1009.6 0.0
19/12:30am 21.0 18.7 7.3 41 7.1 W 9 11 5 6 1010.8 1009.7 0.0
19/12:00am 21.8 18.9 6.4 36 7.9 W 11 13 6 7 1010.9 1009.8 0.0
 
Date/Time
EDT
Temp
°C
App
Temp
°C
Dew
Point
°C
Rel
Hum
%
Delta-T
°C
Wind Press
QNH
hPa
Press
MSL
hPa
Rain since
9am
mm
Dir  Spd
km/h
Gust
km/h
Spd
kts
Gust
kts
18/11:30pm 21.1 19.2 7.5 41 7.1 W 7 7 4 4 1011.0 1009.9 0.0
18/11:00pm 21.9 19.6 7.4 39 7.6 W 9 11 5 6 1011.1 1010.0 0.0
18/10:30pm 22.4 20.0 6.8 36 8.1 W 9 11 5 6 1011.1 1010.0 0.0
18/10:00pm 22.8 21.0 7.9 38 7.9 WSW 7 9 4 5 1011.1 1010.0 0.0
18/09:30pm 24.0 22.4 8.9 38 8.2 W 7 13 4 7 1010.7 1009.6 0.0
18/09:00pm 24.9 24.4 8.0 34 9.1 CALM 0 4 0 2 1010.5 1009.4 0.0
18/08:30pm 25.8 22.1 6.4 29 10.2 WSW 15 20 8 11 1010.1 1009.0 0.0
18/08:00pm 26.9 22.0 5.0 24 11.3 WSW 20 28 11 15 1009.7 1008.6 0.0
18/07:30pm 27.7 21.4 1.5 18 12.8 WSW 24 32 13 17 1009.1 1008.1 0.0
18/07:00pm 28.5 22.2 1.3 17 13.3 WSW 24 32 13 17 1008.7 1007.7 0.0
18/06:30pm 29.5 22.3 -1.7 13 14.6 WSW 26 32 14 17 1008.4 1007.4 0.0
18/06:00pm 30.5 22.7 -0.9 13 15.0 WSW 30 35 16 19 1008.2 1007.2 0.0
18/05:30pm 32.0 24.3 2.4 15 15.1 WSW 32 41 17 22 1008.1 1007.1 0.0
18/05:00pm 33.4 27.3 4.8 16 15.3 WSW 26 35 14 19 1007.9 1006.9 0.0
18/04:30pm 34.5 28.5 7.0 18 15.3 WSW 28 37 15 20 1008.2 1007.2 0.0
18/04:00pm 34.8 27.5 7.0 18 15.5 WSW 35 50 19 27 1008.6 1007.6 0.0
18/03:30pm 35.6 27.7 8.0 18 15.7 SW 39 59 21 32 1008.7 1007.7 0.0
18/03:08pm 34.7 26.8 7.7 19 15.2 WSW 39 57 21 31 1008.8 1007.8 0.0
18/03:00pm 35.1 27.4 7.0 17 15.7 WSW 37 48 20 26 1008.8 1007.8 0.0
18/02:49pm 35.9 28.5 6.7 16 16.3 SW 35 54 19 29 1008.8 1007.8 0.0
18/02:30pm 34.6 26.1 5.3 16 15.9 WSW 39 54 21 29 1008.8 1007.8 0.0
18/02:11pm 37.7 30.7 5.8 14 17.7 WSW 32 56 17 30 1008.5 1007.5 0.0
18/02:00pm 36.3 29.2 6.2 15 16.7 SW 33 44 18 24 1008.6 1007.6 0.0
18/01:37pm 36.2 29.5 5.6 15 16.8 WSW 30 48 16 26 1008.6 1007.6 0.0
18/01:30pm 36.1 29.7 7.1 17 16.3 W 30 39 16 21 1008.5 1007.5 0.0
18/01:00pm 35.6 29.4 6.0 16 16.3 SW 28 39 15 21 1008.7 1007.7 0.0
18/12:30pm 35.3 29.4 5.7 16 16.2 WSW 26 37 14 20 1008.9 1007.9 0.0
18/12:00pm 34.9 29.0 5.6 16 16.0 WSW 26 35 14 19 1008.7 1007.7 0.0
18/11:30am 34.5 28.1 5.4 16 15.8 SW 28 37 15 20 1008.6 1007.6 0.0
18/11:00am 32.9 27.7 5.4 18 14.8 W 22 32 12 17 1008.3 1007.3 0.0
18/10:30am 30.6 27.4 8.4 25 12.4 NW 15 20 8 11 1008.4 1007.4 0.0
18/10:00am 29.7 26.3 7.7 25 12.1 NW 15 20 8 11 1008.1 1007.1 0.0
18/09:30am 28.6 24.6 6.6 25 11.8 WNW 17 20 9 11 1008.3 1007.3 0.0
18/09:00am 26.1 23.1 7.5 30 10.0 NNW 13 15 7 8 1007.4 1006.4 0.0
18/08:30am 24.7 22.3 8.7 36 8.7 NNW 11 13 6 7 1007.3 1006.3 0.0
18/08:00am 22.4 20.3 11.0 48 6.4 WNW 13 19 7 10 1007.2 1006.2 0.0
18/07:30am 21.7 21.4 10.0 47 6.4 E 2 6 1 3 1006.8 1005.7 0.0
18/07:00am 21.0 19.9 10.7 51 5.7 NNE 7 9 4 5 1006.3 1005.2 0.0
18/06:30am 18.7 17.1 11.7 64 3.9 E 11 15 6 8 1006.1 1005.0 0.0
18/06:00am 17.5 17.3 11.9 69 3.1 ENE 4 9 2 5 1005.8 1004.7 0.0
18/05:30am 17.9 17.4 12.6 71 3.0 NNE 7 9 4 5 1005.5 1004.4 0.0
18/05:00am 16.8 16.3 12.1 74 2.6 E 6 7 3 4 1004.9 1003.8 0.0
18/04:30am 20.3 18.8 12.0 59 4.7 ENE 11 11 6 6 1004.6 1003.5 0.0
18/04:00am 17.8 17.3 12.7 72 2.9 SW 7 11 4 6 1004.7 1003.6 0.0
18/03:30am 19.1 19.9 12.6 66 3.7 CALM 0 11 0 6 1004.8 1003.7 0.0
18/03:00am 20.6 21.5 13.0 61 4.4 CALM 0 0 0 0 1004.6 1003.5 0.0
18/02:30am 21.5 22.4 13.0 58 4.9 CALM 0 0 0 0 1004.7 1003.6 0.0
18/02:00am 23.2 24.0 12.5 51 6.2 CALM 0 0 0 0 1005.0 1003.9 0.0
18/01:30am 24.2 25.0 12.5 48 6.8 CALM 0 0 0 0 1005.2 1004.1 0.0
18/01:00am 25.3 26.1 12.6 45 7.4 CALM 0 0 0 0 1005.5 1004.4 0.0
18/12:30am 25.6 26.1 11.7 42 8.0 CALM 0 0 0 0 1005.8 1004.7 0.0
18/12:00am 25.9 26.4 11.7 41 8.2 CALM 0 0 0 0 1005.7 1004.6 0.0
 
Date/Time
EDT
Temp
°C
App
Temp
°C
Dew
Point
°C
Rel
Hum
%
Delta-T
°C
Wind Press
QNH
hPa
Press
MSL
hPa
Rain since
9am
mm
Dir  Spd
km/h
Gust
km/h
Spd
kts
Gust
kts
17/11:30pm 27.3 28.2 13.0 41 8.5 CALM 0 0 0 0 1005.9 1004.8 0.0
17/11:00pm 26.6 27.3 14.6 47 7.3 S 4 6 2 3 1006.0 1004.9 0.0
17/10:30pm 28.6 28.9 12.1 36 9.7 E 2 7 1 4 1005.9 1004.8 0.0
17/10:00pm 31.8 32.0 10.5 27 12.4 CALM 0 0 0 0 1005.9 1004.8 0.0
17/09:30pm 29.4 28.6 11.6 33 10.4 WNW 7 9 4 5 1005.7 1004.6 0.0
17/09:00pm 33.5 33.9 11.2 25 13.2 CALM 0 4 0 2 1005.6 1004.5 0.0
17/08:30pm 36.1 34.2 9.0 19 15.6 NW 9 11 5 6 1005.5 1004.4 0.0
17/08:00pm 37.3 34.8 8.0 16 16.8 WNW 11 15 6 8 1005.5 1004.4 0.0
17/07:30pm 39.3 34.3 3.8 11 19.2 WNW 19 30 10 16 1005.5 1004.4 0.0
17/07:00pm 39.8 34.4 4.6 11 19.4 WNW 22 30 12 16 1005.5 1004.4 0.0
17/06:30pm 40.0 34.9 5.9 12 19.1 WNW 22 35 12 19 1005.5 1004.4 0.0
17/06:00pm 40.4 34.3 6.8 13 19.2 WNW 28 37 15 20 1005.7 1004.6 0.0
17/05:30pm 40.4 33.6 7.1 13 19.0 W 32 41 17 22 1006.0 1004.9 0.0
17/05:00pm 40.8 35.5 8.3 14 19.0 W 26 37 14 20 1006.2 1005.1 0.0
17/04:39pm 40.4 34.5 7.7 14 18.9 WNW 28 48 15 26 1006.4 1005.3 0.0
17/04:30pm 40.9 35.2 8.5 14 18.9 W 28 41 15 22 1006.4 1005.3 0.0
17/04:27pm 40.7 34.9 8.1 14 18.9 WNW 28 46 15 25 1006.4 1005.3 0.0
17/04:00pm 39.5 33.7 9.3 16 17.8 WNW 30 43 16 23 1006.8 1005.7 0.0
17/03:51pm 40.2 34.3 9.2 15 18.3 WNW 30 48 16 26 1006.9 1005.8 0.0
17/03:30pm 40.7 35.2 9.0 15 18.7 W 28 41 15 22 1007.0 1006.0 0.0
17/03:00pm 39.9 34.5 9.5 16 18.0 WNW 28 43 15 23 1007.4 1006.4 0.0
17/02:30pm 39.5 32.9 8.7 15 18.0 WNW 33 54 18 29 1007.8 1006.8 0.0
17/02:00pm 39.3 33.0 8.9 16 17.8 WNW 32 50 17 27 1008.5 1007.5 0.0
17/01:40pm 39.8 33.1 8.3 15 18.3 WNW 33 52 18 28 1008.9 1007.9 0.0
17/01:30pm 39.3 32.8 8.9 16 17.8 W 33 46 18 25 1009.1 1008.1 0.0
17/01:00pm 38.9 33.2 8.4 15 17.7 W 28 46 15 25 1009.6 1008.5 0.0
17/12:49pm 38.9 33.1 9.6 17 17.3 WNW 30 52 16 28 1009.7 1008.6 0.0
17/12:30pm 38.5 36.1 11.4 19 16.4 WNW 15 30 8 16 1010.0 1008.9 0.0
17/12:00pm 37.6 35.5 11.3 20 15.8 NW 13 24 7 13 1010.7 1009.6 0.0
17/11:30am 36.5 35.4 9.9 20 15.6 NNW 6 9 3 5 1011.3 1010.3 0.0
17/11:00am 34.1 33.0 10.0 23 14.0 NE 6 9 3 5 1011.9 1010.9 0.0
17/10:30am 32.4 30.4 10.1 25 12.9 NNE 11 15 6 8 1012.2 1011.2 0.0
17/10:00am 32.0 30.4 10.2 26 12.6 ENE 9 15 5 8 1012.5 1011.5 0.0
17/09:30am 29.5 27.9 10.3 30 11.0 E 9 15 5 8 1012.8 1011.8 0.0
17/09:00am 27.1 25.1 10.3 35 9.5 E 11 15 6 8 1013.1 1012.1 0.0
17/08:30am 24.3 22.0 10.6 42 7.7 ENE 13 17 7 9 1013.1 1012.1 0.0
17/08:00am 23.2 20.8 10.2 43 7.2 E 13 15 7 8 1013.0 1012.0 0.0
17/07:30am 21.2 19.5 9.8 48 6.2 ENE 9 11 5 6 1012.7 1011.7 0.0
17/07:00am 19.5 17.9 10.1 54 5.1 ENE 9 11 5 6 1012.4 1011.4 0.0
17/06:30am 18.1 16.0 9.7 58 4.5 ENE 11 13 6 7 1012.1 1011.1 0.0
17/06:00am 15.4 13.8 10.3 71 2.7 E 9 11 5 6 1012.2 1011.2 0.0
17/05:30am 16.5 14.8 9.9 65 3.5 E 9 13 5 7 1012.1 1011.1 0.0
17/05:00am 17.7 14.8 9.6 59 4.3 E 15 19 8 10 1011.7 1010.7 0.0
17/04:30am 15.3 13.0 10.6 73 2.5 ENE 13 17 7 9 1011.5 1010.5 0.0
17/04:00am 17.5 17.1 9.8 60 4.1 E 2 11 1 6 1011.4 1010.4 0.0
17/03:30am 17.7 16.9 9.8 60 4.2 E 4 7 2 4 1011.2 1010.2 0.0
17/03:00am 19.9 17.6 7.3 44 6.5 SE 9 11 5 6 1011.1 1010.0 0.0
17/02:30am 16.4 15.6 11.7 74 2.6 SSE 7 9 4 5 1011.5 1010.5 0.0
17/02:00am 18.8 19.0 10.5 58 4.5 CALM 0 0 0 0 1011.3 1010.3 0.0
17/01:30am 18.1 17.2 10.8 62 4.0 SSE 6 9 3 5 1011.6 1010.6 0.0
17/01:00am 17.4 16.3 10.8 65 3.6 E 7 9 4 5 1011.8 1010.8 0.0
17/12:30am 20.7 19.1 8.9 46 6.3 N 7 7 4 4 1011.8 1010.8 0.0
17/12:00am 20.7 20.8 10.3 51 5.7 CALM 0 0 0 0 1012.1 1011.1 0.0
 
Date/Time
EDT
Temp
°C
App
Temp
°C
Dew
Point
°C
Rel
Hum
%
Delta-T
°C
Wind Press
QNH
hPa
Press
MSL
hPa
Rain since
9am
mm
Dir  Spd
km/h
Gust
km/h
Spd
kts
Gust
kts
16/11:30pm 22.6 21.9 6.8 36 8.2 CALM 0 0 0 0 1012.2 1011.2 0.0
16/11:00pm 21.3 21.5 10.6 50 5.9 CALM 0 0 0 0 1012.4 1011.4 0.0
16/10:30pm 22.1 22.2 10.3 47 6.5 CALM 0 0 0 0 1012.5 1011.5 0.0
16/10:00pm 24.4 24.3 9.3 38 8.3 CALM 0 0 0 0 1012.2 1011.2 0.0
16/09:30pm 26.2 25.0 10.2 36 9.0 N 7 7 4 4 1012.1 1011.1 0.0
16/09:00pm 28.9 28.2 6.8 24 11.9 CALM 0 0 0 0 1011.9 1010.9 0.0
16/08:30pm 32.0 29.2 3.1 16 14.9 N 7 9 4 5 1011.7 1010.7 0.0
16/08:00pm 33.1 29.9 3.3 15 15.5 N 9 11 5 6 1011.6 1010.6 0.0

Other Formats:

Comma delimited format used in spreadsheet applications
http://www.bom.gov.au/fwo/IDN60801/IDN60801.94910.axf

JavaScript Object Notation format (JSON) in row-major order
http://www.bom.gov.au/fwo/IDN60801/IDN60801.94910.json